Time;durP1;ratioP1;P1;durP2;ratioP2;P2;SDS_P1;SDS_P2;PMS_P1;PMS_P2;Temp;Humidity;BMP_temperature;BMP_pressure;BME280_temperature;BME280_humidity;BME280_pressure;Samples;Min_cycle;Max_cycle;Signal;HPM_P1;HPM_P2
2021/05/20 00:00:03;;;;;;;2.97;2.37;;;;;;;17.36;65.35;94074.78;5116720;28;20437;-79
2021/05/20 00:02:29;;;;;;;4.20;2.77;;;;;;;17.40;65.81;94075.22;5115765;28;20504;-79
2021/05/20 00:04:55;;;;;;;4.40;3.00;;;;;;;17.42;65.50;94060.75;5115530;28;20435;-79
2021/05/20 00:07:22;;;;;;;8.77;2.63;;;;;;;17.41;65.48;94060.94;5115613;28;20444;-79
2021/05/20 00:09:48;;;;;;;9.33;2.70;;;;;;;17.37;65.08;94060.50;5115927;28;20470;-79
2021/05/20 00:12:15;;;;;;;3.17;2.83;;;;;;;17.39;65.71;94069.09;5116151;28;20436;-79
2021/05/20 00:14:42;;;;;;;7.50;2.50;;;;;;;17.41;65.93;94066.25;5096440;28;21180;-79
2021/05/20 00:17:08;;;;;;;4.03;2.30;;;;;;;17.46;66.50;94067.31;5115798;28;20457;-79
2021/05/20 00:19:35;;;;;;;2.80;2.27;;;;;;;17.43;67.54;94075.66;5115430;28;20438;-79
2021/05/20 00:22:01;;;;;;;5.10;2.73;;;;;;;17.38;68.13;94077.25;5115693;28;20491;-79
2021/05/20 00:24:27;;;;;;;9.00;2.77;;;;;;;17.29;68.88;94085.31;5115350;28;20435;-78
2021/05/20 00:26:54;;;;;;;4.13;2.77;;;;;;;17.21;69.76;94081.97;5115270;28;20917;-79
2021/05/20 00:29:20;;;;;;;4.43;2.33;;;;;;;17.12;70.64;94073.34;5115300;28;20445;-79
2021/05/20 00:31:47;;;;;;;3.30;2.30;;;;;;;17.09;71.95;94075.56;5115312;28;20447;-79
2021/05/20 00:34:14;;;;;;;4.67;2.50;;;;;;;17.07;72.36;94089.00;5115337;28;20427;-79
2021/05/20 00:36:40;;;;;;;3.10;2.40;;;;;;;17.04;73.25;94092.81;5096070;28;20509;-79
2021/05/20 00:39:06;;;;;;;4.87;2.70;;;;;;;17.02;73.90;94084.25;5115088;28;20427;-79
2021/05/20 00:41:33;;;;;;;4.67;2.70;;;;;;;17.05;73.88;94085.69;5115179;28;20483;-79
2021/05/20 00:43:59;;;;;;;4.27;2.40;;;;;;;17.08;75.26;94084.50;5115228;28;20446;-79
2021/05/20 00:46:26;;;;;;;13.70;3.53;;;;;;;17.06;75.19;94074.09;5115059;28;20425;-80
2021/05/20 00:48:53;;;;;;;7.83;2.47;;;;;;;16.96;75.57;94073.56;5114767;28;20518;-79
2021/05/20 00:51:19;;;;;;;6.90;3.37;;;;;;;16.90;76.32;94071.69;5115018;28;20468;-79
2021/05/20 00:53:48;;;;;;;9.10;3.83;;;;;;;16.90;76.63;94079.63;5115068;28;20453;-79
2021/05/20 00:56:15;;;;;;;6.93;3.57;;;;;;;16.93;78.47;94076.59;5096291;28;20479;-79
2021/05/20 00:58:44;;;;;;;8.13;3.13;;;;;;;16.95;78.63;94078.06;5114903;28;20450;-80
2021/05/20 01:01:11;;;;;;;4.47;2.90;;;;;;;16.97;79.05;94072.56;5115266;28;20757;-79
2021/05/20 01:03:39;;;;;;;3.87;2.70;;;;;;;16.98;77.96;94066.25;5078884;28;20449;-79
2021/05/20 01:06:07;;;;;;;7.73;3.30;;;;;;;17.00;78.80;94059.75;5114988;28;20420;-79
2021/05/20 01:08:33;;;;;;;5.27;2.43;;;;;;;17.03;79.75;94048.75;5114381;28;20448;-79
2021/05/20 01:11:00;;;;;;;3.80;2.57;;;;;;;17.02;79.72;94046.31;5114320;28;20968;-79
2021/05/20 01:13:27;;;;;;;5.50;2.90;;;;;;;16.98;80.56;94053.81;5113565;28;20529;-80
2021/05/20 01:15:54;;;;;;;7.07;3.17;;;;;;;16.98;81.17;94045.88;5114589;28;20492;-79
2021/05/20 01:18:20;;;;;;;7.17;3.40;;;;;;;16.97;81.33;94046.88;5114755;28;20449;-79
2021/05/20 01:20:47;;;;;;;11.13;2.93;;;;;;;16.95;81.88;94035.66;5114067;28;20446;-79
2021/05/20 01:23:15;;;;;;;11.97;3.93;;;;;;;16.98;81.94;94039.75;5114516;28;20456;-80
2021/05/20 01:25:44;;;;;;;3.83;3.10;;;;;;;16.98;82.76;94039.75;5114354;28;20483;-79
2021/05/20 01:28:15;;;;;;;8.23;2.67;;;;;;;16.95;82.13;94034.84;5114388;28;20443;-80
2021/05/20 01:30:43;;;;;;;4.70;3.10;;;;;;;16.92;82.77;94040.50;5114705;28;20453;-80
2021/05/20 01:33:10;;;;;;;3.80;3.43;;;;;;;16.87;82.33;94022.53;5114461;28;20446;-79
2021/05/20 01:35:37;;;;;;;8.93;2.97;;;;;;;16.87;81.86;94021.72;5113831;28;20490;-79
2021/05/20 01:38:33;;;;;;;7.40;3.07;;;;;;;16.83;82.35;94007.22;5113983;28;20835;-79
2021/05/20 01:41:02;;;;;;;8.67;3.10;;;;;;;16.72;82.73;94006.69;5113880;28;20796;-79
2021/05/20 01:43:28;;;;;;;5.03;3.00;;;;;;;16.70;82.03;94006.06;5114028;28;20435;-79
2021/05/20 01:45:57;;;;;;;6.50;3.50;;;;;;;16.59;82.12;94005.72;5114008;28;20443;-79
2021/05/20 01:48:24;;;;;;;4.33;4.03;;;;;;;16.54;82.80;94001.00;5113902;28;20453;-79
2021/05/20 01:50:51;;;;;;;4.40;2.80;;;;;;;16.48;83.87;94000.91;5114066;28;20433;-79
2021/05/20 01:53:18;;;;;;;7.73;3.07;;;;;;;16.46;85.00;93997.63;5113891;28;20448;-80
2021/05/20 01:55:48;;;;;;;8.63;3.23;;;;;;;16.43;85.33;93990.88;5113224;28;20853;-80
2021/05/20 01:58:14;;;;;;;6.10;3.87;;;;;;;16.43;85.27;93988.22;5113571;28;20435;-80
2021/05/20 02:00:41;;;;;;;4.80;3.27;;;;;;;16.45;85.08;93986.22;5113865;28;20489;-79
2021/05/20 02:03:07;;;;;;;3.90;2.97;;;;;;;16.50;85.09;93981.19;5078325;28;21266;-79
2021/05/20 02:05:33;;;;;;;6.93;3.53;;;;;;;16.50;85.60;93981.19;5113918;28;20439;-79
2021/05/20 02:07:59;;;;;;;3.53;2.90;;;;;;;16.45;85.34;93978.25;5113976;28;20441;-79
2021/05/20 02:10:27;;;;;;;4.03;3.10;;;;;;;16.49;85.34;93978.72;5113511;28;20455;-80
2021/05/20 02:12:53;;;;;;;10.70;4.67;;;;;;;16.51;85.34;93982.00;5113486;28;20440;-80
2021/05/20 02:15:19;;;;;;;4.90;2.90;;;;;;;16.51;85.05;93980.19;5113932;28;20486;-80
2021/05/20 02:17:46;;;;;;;3.20;2.90;;;;;;;16.46;84.75;93979.91;5113369;28;20451;-80
2021/05/20 02:20:14;;;;;;;5.13;2.90;;;;;;;16.46;85.05;93977.25;5114063;28;20886;-79
2021/05/20 02:22:40;;;;;;;11.63;3.17;;;;;;;16.50;85.07;93983.84;5113610;28;20433;-79
2021/05/20 02:25:08;;;;;;;6.23;3.30;;;;;;;16.53;84.39;93972.03;5114287;28;20449;-79
2021/05/20 02:27:35;;;;;;;7.43;3.40;;;;;;;16.54;84.80;93973.69;5117482;28;20796;-80
2021/05/20 02:30:01;;;;;;;6.47;4.30;;;;;;;16.54;84.16;93968.38;5117381;28;20488;-80
2021/05/20 02:32:27;;;;;;;4.93;2.80;;;;;;;16.54;84.05;93966.56;5117266;28;20433;-79
2021/05/20 02:34:54;;;;;;;3.90;3.50;;;;;;;16.47;84.06;93960.34;5117065;28;20460;-80
2021/05/20 02:37:20;;;;;;;4.13;3.10;;;;;;;16.49;84.73;93962.84;5117237;28;20428;-79
2021/05/20 02:39:46;;;;;;;11.90;4.07;;;;;;;16.49;84.11;93965.50;5117042;28;20433;-79
2021/05/20 02:42:13;;;;;;;4.63;3.60;;;;;;;16.48;84.42;93954.09;5117261;28;20443;-80
2021/05/20 02:44:40;;;;;;;6.07;3.33;;;;;;;16.42;83.93;93954.81;5117840;28;20515;-79
2021/05/20 02:47:06;;;;;;;5.40;3.10;;;;;;;16.33;83.65;93956.75;5117997;28;20987;-79
2021/05/20 02:49:33;;;;;;;4.93;2.83;;;;;;;16.23;83.33;93955.44;5117437;28;20435;-79
2021/05/20 02:51:59;;;;;;;10.97;3.70;;;;;;;16.10;83.50;93956.91;5098081;28;20811;-79
2021/05/20 02:54:25;;;;;;;3.20;2.90;;;;;;;16.09;84.38;93959.75;5117411;28;20433;-80
2021/05/20 02:56:51;;;;;;;4.00;2.93;;;;;;;16.04;84.49;93962.16;5117394;28;20486;-79
2021/05/20 02:59:18;;;;;;;4.33;2.50;;;;;;;16.01;84.31;93967.81;5116871;28;20454;-79
2021/05/20 03:01:46;;;;;;;8.63;2.90;;;;;;;15.91;85.17;93972.59;5117237;28;20451;-79
2021/05/20 03:04:13;;;;;;;5.93;2.90;;;;;;;15.91;85.18;93973.41;5117041;28;20454;-79
2021/05/20 03:06:40;;;;;;;5.43;3.37;;;;;;;15.89;85.53;93967.44;5116992;28;20442;-79
2021/05/20 03:09:09;;;;;;;6.03;3.13;;;;;;;15.91;85.86;93978.69;5116711;28;20954;-79
2021/05/20 03:11:35;;;;;;;6.40;3.60;;;;;;;15.93;86.16;93991.75;5116522;28;20854;-80
2021/05/20 03:14:02;;;;;;;4.73;3.30;;;;;;;15.95;86.36;93982.59;5116711;28;20500;-79
2021/05/20 03:16:28;;;;;;;5.50;3.30;;;;;;;15.67;84.83;93990.38;5117151;28;20491;-79
2021/05/20 03:18:56;;;;;;;5.93;3.05;;;;;;;15.75;88.02;93990.28;5116643;27;20439;-81
2021/05/20 03:21:22;;;;;;;7.17;3.80;;;;;;;15.78;86.43;93989.91;5097975;28;20692;-81
2021/05/20 03:23:49;;;;;;;5.77;2.93;;;;;;;15.99;86.58;93997.09;5117271;28;20445;-85
2021/05/20 03:26:15;;;;;;;3.83;2.47;;;;;;;16.05;86.29;93996.34;5116733;28;20442;-80
2021/05/20 03:28:41;;;;;;;5.93;3.73;;;;;;;16.04;86.41;94009.78;5116790;28;20431;-81
2021/05/20 03:31:08;;;;;;;7.20;3.10;;;;;;;16.02;86.23;94022.38;5116516;28;20430;-81
2021/05/20 03:33:34;;;;;;;4.00;3.23;;;;;;;16.01;86.26;94026.03;5116937;28;20473;-80
2021/05/20 03:36:01;;;;;;;7.27;3.43;;;;;;;15.95;86.48;94043.47;5116081;28;20481;-80
2021/05/20 03:38:28;;;;;;;10.47;3.10;;;;;;;15.92;87.44;94046.47;5116078;28;20799;-81
2021/05/20 03:40:54;;;;;;;4.90;3.80;;;;;;;15.91;88.53;94046.66;5116253;28;20451;-81
2021/05/20 03:43:20;;;;;;;5.90;3.30;;;;;;;15.91;89.22;94058.06;5116361;28;20430;-82
2021/05/20 03:45:46;;;;;;;6.30;3.33;;;;;;;15.85;89.20;94060.59;5117305;28;20438;-83
2021/05/20 03:48:13;;;;;;;5.47;3.53;;;;;;;15.82;89.64;94055.69;5116301;28;20449;-82
2021/05/20 03:50:40;;;;;;;8.03;3.33;;;;;;;15.80;89.76;94058.50;5117330;28;20481;-81
2021/05/20 03:53:07;;;;;;;6.50;3.57;;;;;;;15.77;90.04;94057.03;5115894;28;20449;-81
2021/05/20 03:55:33;;;;;;;7.53;3.83;;;;;;;15.69;89.64;94065.06;5116160;28;20478;-81
2021/05/20 03:58:00;;;;;;;6.97;3.87;;;;;;;15.67;89.95;94082.97;5116066;27;20447;-81
2021/05/20 04:00:27;;;;;;;6.13;3.73;;;;;;;15.54;89.99;94071.31;5116185;28;20538;-80
2021/05/20 04:02:53;;;;;;;6.40;3.60;;;;;;;15.55;90.76;94067.66;5116186;28;20447;-81
2021/05/20 04:05:19;;;;;;;6.63;3.73;;;;;;;15.54;91.22;94071.31;5115607;28;20449;-81
2021/05/20 04:07:45;;;;;;;7.20;4.17;;;;;;;15.48;91.58;94068.38;5115738;28;20431;-81
2021/05/20 04:10:14;;;;;;;7.83;4.03;;;;;;;15.46;91.61;94075.69;5116058;28;20487;-81
2021/05/20 04:12:40;;;;;;;10.33;3.80;;;;;;;15.37;90.76;94063.53;5115632;28;20434;-81
2021/05/20 04:15:08;;;;;;;7.27;3.40;;;;;;;15.37;91.21;94063.53;5115510;28;20934;-81
2021/05/20 04:17:34;;;;;;;4.77;3.50;;;;;;;15.36;92.54;94059.25;5115792;28;20459;-81
2021/05/20 04:20:00;;;;;;;9.70;3.93;;;;;;;15.38;92.46;94057.25;5115799;28;20860;-82
2021/05/20 04:22:26;;;;;;;6.20;3.50;;;;;;;15.42;93.40;94057.72;5116029;28;20456;-82
2021/05/20 04:24:53;;;;;;;9.00;3.70;;;;;;;15.46;93.17;94054.53;5116364;28;20476;-82
2021/05/20 04:27:20;;;;;;;7.47;3.80;;;;;;;15.45;92.87;94047.59;5115502;28;20496;-82
2021/05/20 04:29:46;;;;;;;6.13;4.07;;;;;;;15.48;92.50;94049.88;5116108;28;20452;-81
2021/05/20 04:32:13;;;;;;;6.40;3.87;;;;;;;15.50;92.39;94044.41;5115230;28;20446;-81
2021/05/20 04:34:39;;;;;;;6.37;4.20;;;;;;;15.48;92.30;94041.94;5115940;27;20431;-84
2021/05/20 04:37:08;;;;;;;9.07;3.73;;;;;;;15.48;91.98;94036.66;5115612;28;20970;-81
2021/05/20 04:39:35;;;;;;;5.10;4.20;;;;;;;15.56;92.64;94058.72;5113366;28;20511;-81
2021/05/20 04:42:01;;;;;;;8.40;5.10;;;;;;;15.56;91.57;94064.00;5113594;28;20442;-80
2021/05/20 04:44:28;;;;;;;8.37;4.47;;;;;;;15.66;93.59;94067.28;5115183;28;20899;-81
2021/05/20 04:46:55;;;;;;;7.20;5.20;;;;;;;15.75;92.50;94082.03;5115695;28;20431;-81
2021/05/20 04:49:21;;;;;;;5.93;4.70;;;;;;;15.89;92.28;94085.69;5115325;28;20459;-81
2021/05/20 04:51:47;;;;;;;6.80;5.43;;;;;;;15.94;91.79;94073.56;5115151;28;20480;-81
2021/05/20 04:54:13;;;;;;;5.97;4.20;;;;;;;15.96;91.37;94063.63;5115367;28;20425;-81
2021/05/20 04:56:40;;;;;;;5.50;4.03;;;;;;;16.02;91.57;94076.13;5115618;28;20803;-80
2021/05/20 04:59:06;;;;;;;5.43;4.70;;;;;;;15.99;90.95;94065.09;5115661;28;20444;-79
2021/05/20 05:01:33;;;;;;;8.43;4.33;;;;;;;16.02;91.28;94062.88;5115031;27;20436;-81
2021/05/20 05:04:00;;;;;;;10.23;5.10;;;;;;;15.99;91.57;94060.63;5114824;28;20801;-82
2021/05/20 05:06:27;;;;;;;3.70;3.40;;;;;;;15.67;85.34;94071.56;5115069;28;20468;-81
2021/05/20 05:08:53;;;;;;;4.90;3.07;;;;;;;15.47;85.99;94066.75;5115098;28;20463;-84
2021/05/20 05:11:20;;;;;;;2.20;2.00;;;;;;;15.15;82.49;94064.41;5114539;28;20449;-81
2021/05/20 05:13:46;;;;;;;3.50;2.40;;;;;;;15.06;85.61;94074.22;5115181;28;20759;-80
2021/05/20 05:16:12;;;;;;;3.50;3.00;;;;;;;15.18;89.31;94061.41;5114773;28;20465;-79
2021/05/20 05:18:40;;;;;;;4.10;2.50;;;;;;;15.40;86.90;94065.81;5114544;28;20451;-80
2021/05/20 05:21:06;;;;;;;3.83;2.80;;;;;;;15.38;88.19;94061.72;5114548;28;20572;-81
2021/05/20 05:23:32;;;;;;;2.57;2.23;;;;;;;15.22;86.73;94067.97;5114786;28;20922;-80
2021/05/20 05:25:59;;;;;;;2.63;2.43;;;;;;;15.16;87.30;94071.31;5114408;28;20430;-81
2021/05/20 05:28:25;;;;;;;2.50;2.30;;;;;;;15.08;88.67;94066.13;5114340;28;20925;-81
2021/05/20 05:30:52;;;;;;;2.70;2.03;;;;;;;14.91;88.67;94067.22;5114447;28;20953;-80
2021/05/20 05:33:21;;;;;;;2.30;2.10;;;;;;;14.76;88.16;94078.56;5114646;27;21048;-80
2021/05/20 05:35:48;;;;;;;2.67;2.43;;;;;;;14.61;88.11;94074.19;5114360;28;21068;-80
2021/05/20 05:38:14;;;;;;;2.83;2.40;;;;;;;14.52;89.29;94078.72;5114553;28;20440;-81
2021/05/20 05:40:41;;;;;;;5.77;3.07;;;;;;;14.50;88.91;94088.63;5114196;28;20443;-80
2021/05/20 05:43:08;;;;;;;4.60;3.27;;;;;;;14.53;90.90;94089.09;5114025;28;20439;-80
2021/05/20 05:45:34;;;;;;;7.20;5.53;;;;;;;14.58;91.44;94091.22;5113910;28;20444;-80
2021/05/20 05:48:00;;;;;;;5.33;3.40;;;;;;;14.61;91.69;94095.31;5114027;28;20983;-80
2021/05/20 05:50:28;;;;;;;3.57;3.27;;;;;;;14.49;92.53;94103.66;5114284;28;20453;-81
2021/05/20 05:52:55;;;;;;;3.40;3.10;;;;;;;14.32;93.71;94112.59;5114293;28;20527;-81
2021/05/20 05:55:22;;;;;;;6.90;4.10;;;;;;;14.23;93.37;94125.00;5114664;28;20586;-81
2021/05/20 05:57:48;;;;;;;3.27;2.97;;;;;;;14.10;93.78;94127.34;5044920;28;20454;-81
2021/05/20 06:00:16;;;;;;;5.93;2.40;;;;;;;13.94;93.01;94148.50;5113312;28;20425;-79
2021/05/20 06:02:45;;;;;;;3.50;3.20;;;;;;;13.76;94.54;94145.25;5114029;28;20438;-81
2021/05/20 06:05:12;;;;;;;4.10;3.37;;;;;;;13.67;94.88;94148.88;5113769;28;20432;-82
2021/05/20 06:07:38;;;;;;;6.50;2.10;;;;;;;13.62;96.45;94170.50;5095011;28;20438;-80
2021/05/20 06:10:06;;;;;;;2.43;2.23;;;;;;;13.48;96.51;94182.50;5113408;28;20448;-81
2021/05/20 06:12:33;;;;;;;2.90;2.70;;;;;;;13.44;96.46;94196.19;5114176;28;20445;-82
2021/05/20 06:14:59;;;;;;;2.97;2.77;;;;;;;13.11;93.56;94196.13;5113848;28;20438;-81
2021/05/20 06:17:26;;;;;;;2.40;1.60;;;;;;;12.79;92.76;94203.94;5113785;28;20467;-81
2021/05/20 06:19:52;;;;;;;2.13;1.70;;;;;;;12.64;92.74;94203.72;5113714;28;20457;-81
2021/05/20 06:22:18;;;;;;;2.10;1.90;;;;;;;12.74;94.86;94199.19;5114251;28;20432;-81
2021/05/20 06:24:45;;;;;;;3.40;1.33;;;;;;;12.72;94.75;94195.84;5113784;28;20442;-81
2021/05/20 06:27:13;;;;;;;5.03;1.80;;;;;;;12.77;96.34;94182.22;5112612;28;20447;-81
2021/05/20 06:29:39;;;;;;;2.80;2.30;;;;;;;12.79;96.28;94181.09;5112642;28;20499;-80
2021/05/20 06:32:06;;;;;;;9.40;4.10;;;;;;;12.88;95.51;94195.91;5110725;28;20448;-81
2021/05/20 06:34:32;;;;;;;2.57;2.37;;;;;;;12.96;96.54;94190.66;5103446;28;20517;-81
2021/05/20 06:37:02;;;;;;;3.77;2.33;;;;;;;12.94;95.77;94190.00;5093084;28;20490;-81
2021/05/20 06:39:28;;;;;;;3.20;3.00;;;;;;;12.97;95.98;94199.38;5098443;28;20435;-81
2021/05/20 06:41:55;;;;;;;1.67;1.57;;;;;;;12.97;94.40;94194.94;5112984;28;20444;-81
2021/05/20 06:44:22;;;;;;;5.00;1.70;;;;;;;13.13;93.15;94195.97;5077839;28;20448;-81
2021/05/20 06:46:49;;;;;;;1.50;1.40;;;;;;;13.18;93.88;94199.78;5112657;28;20455;-81
2021/05/20 06:49:15;;;;;;;2.00;1.80;;;;;;;13.21;92.32;94202.09;5113599;28;20435;-81
2021/05/20 06:51:41;;;;;;;1.97;1.80;;;;;;;13.31;92.95;94209.84;5113644;28;20462;-81
2021/05/20 06:54:08;;;;;;;1.80;1.70;;;;;;;13.48;93.70;94208.84;5113216;28;20945;-81
2021/05/20 06:56:34;;;;;;;2.10;2.00;;;;;;;13.71;94.01;94221.38;5114138;28;20465;-82
2021/05/20 07:01:51;;;;;;;4.07;2.13;;;;;;;13.84;88.29;94214.59;5051263;28;20830;-82
2021/05/20 07:04:17;;;;;;;1.70;1.60;;;;;;;13.90;87.97;94211.34;5051431;28;20450;-82
2021/05/20 07:06:44;;;;;;;1.93;1.73;;;;;;;13.86;87.01;94204.72;5002020;28;20533;-81
2021/05/20 07:09:10;;;;;;;1.77;1.67;;;;;;;14.02;87.74;94203.88;5050958;28;20464;-83
2021/05/20 07:11:37;;;;;;;6.17;1.90;;;;;;;14.12;86.31;94209.78;5042153;28;20453;-81
2021/05/20 07:14:04;;;;;;;2.23;2.03;;;;;;;14.21;85.27;94210.63;5035076;28;20450;-81
2021/05/20 07:16:31;;;;;;;3.13;1.30;;;;;;;14.61;84.44;94211.50;5034920;28;20629;-81
2021/05/20 07:18:58;;;;;;;1.27;1.17;;;;;;;15.13;79.21;94196.72;5034419;28;20896;-81
2021/05/20 07:21:24;;;;;;;4.20;1.40;;;;;;;15.65;77.04;94196.03;4985699;28;20452;-82
2021/05/20 07:23:51;;;;;;;1.50;1.40;;;;;;;16.34;77.56;94193.22;5034724;28;20446;-82
2021/05/20 07:26:17;;;;;;;1.97;1.87;;;;;;;16.81;73.59;94192.06;5034738;28;20445;-82
2021/05/20 07:28:44;;;;;;;2.37;1.40;;;;;;;17.12;71.38;94194.47;5034169;28;20452;-82
2021/05/20 07:31:10;;;;;;;1.80;1.53;;;;;;;17.10;69.47;94207.09;5035203;28;20442;-81
2021/05/20 07:33:38;;;;;;;1.30;1.20;;;;;;;17.22;69.53;94194.97;5037566;28;20454;-82
2021/05/20 07:36:06;;;;;;;1.10;1.00;;;;;;;17.28;67.64;94197.69;5034074;28;20474;-82
2021/05/20 07:38:33;;;;;;;1.50;1.40;;;;;;;17.24;64.97;94188.47;5070293;28;20468;-83
2021/05/20 07:40:59;;;;;;;1.30;1.20;;;;;;;17.34;66.75;94190.81;5096857;28;20938;-82
2021/05/20 07:43:26;;;;;;;1.83;1.27;;;;;;;17.48;65.98;94194.44;5096167;28;20933;-81
2021/05/20 07:45:52;;;;;;;1.30;1.20;;;;;;;17.55;67.83;94190.00;5096469;28;20928;-82
2021/05/20 07:48:19;;;;;;;2.00;1.80;;;;;;;17.22;64.00;94192.31;5096061;28;20474;-81
2021/05/20 07:50:45;;;;;;;1.60;1.50;;;;;;;16.78;66.86;94195.91;5096154;28;20894;-81
2021/05/20 07:53:12;;;;;;;1.50;1.40;;;;;;;17.00;66.55;94210.00;5116651;28;20444;-82
2021/05/20 07:55:38;;;;;;;1.70;1.50;;;;;;;17.02;65.73;94213.28;5116541;28;20474;-81
2021/05/20 07:58:05;;;;;;;2.00;1.30;;;;;;;17.03;67.19;94205.16;5096750;28;20431;-81
2021/05/20 08:00:32;;;;;;;1.83;1.40;;;;;;;16.30;68.28;94208.66;5097581;28;20232;-82
2021/05/20 08:03:02;;;;;;;1.30;1.20;;;;;;;15.76;68.76;94223.88;5116119;28;20448;-80
2021/05/20 08:05:34;;;;;;;1.33;1.20;;;;;;;15.67;71.07;94217.03;5116076;28;20428;-81
2021/05/20 08:08:05;;;;;;;2.37;1.37;;;;;;;15.84;71.51;94229.09;5116197;28;20461;-81
2021/05/20 08:10:45;;;;;;;1.20;1.10;;;;;;;16.30;68.22;94251.03;5116241;28;20471;-81
2021/05/20 08:13:12;;;;;;;1.80;1.70;;;;;;;16.39;68.01;94244.63;5115441;28;20541;-81
2021/05/20 08:15:38;;;;;;;5.67;2.20;;;;;;;16.32;69.79;94258.78;5115822;28;20482;-81
2021/05/20 08:18:05;;;;;;;8.00;3.10;;;;;;;16.17;68.13;94265.88;5115642;28;20508;-81
2021/05/20 08:20:31;;;;;;;2.00;1.47;;;;;;;15.67;67.97;94259.34;5096463;28;20460;-81
2021/05/20 08:22:58;;;;;;;1.80;1.70;;;;;;;15.80;69.74;94262.22;5115105;28;20494;-81
2021/05/20 08:25:25;;;;;;;3.90;2.30;;;;;;;16.15;69.04;94249.34;5115494;28;20438;-81
2021/05/20 08:27:52;;;;;;;3.00;1.90;;;;;;;16.59;67.65;94260.81;5115388;27;20997;-82
2021/05/20 08:30:20;;;;;;;1.73;1.33;;;;;;;16.95;67.33;94262.75;5106452;28;20927;-81
2021/05/20 08:32:47;;;;;;;1.50;1.40;;;;;;;17.19;64.15;94259.00;5094936;28;20455;-81
2021/05/20 08:35:13;;;;;;;2.20;1.43;;;;;;;17.38;65.20;94261.06;5076289;28;20550;-81
2021/05/20 08:37:41;;;;;;;1.73;1.20;;;;;;;17.58;64.68;94272.69;5115262;28;20479;-81
2021/05/20 08:40:08;;;;;;;6.00;1.93;;;;;;;17.55;61.77;94275.72;5111822;28;20444;-79
2021/05/20 08:42:35;;;;;;;3.20;1.80;;;;;;;17.55;63.88;94285.50;5067736;28;20455;-86
2021/05/20 08:45:11;;;;;;;1.73;1.50;;;;;;;17.50;62.79;94280.78;5109932;28;20455;-86
2021/05/20 08:47:38;;;;;;;3.30;2.33;;;;;;;17.29;62.11;94280.72;5111397;28;20458;-88
2021/05/20 08:50:05;;;;;;;2.70;2.00;;;;;;;17.08;63.22;94273.56;5096482;28;20447;-79
2021/05/20 08:52:33;;;;;;;6.30;1.53;;;;;;;17.07;63.87;94276.38;5114745;28;20471;-80
2021/05/20 08:54:59;;;;;;;2.47;1.80;;;;;;;17.05;62.45;94284.50;5115055;28;20471;-80
2021/05/20 08:57:26;;;;;;;3.77;1.50;;;;;;;16.87;60.68;94284.06;5115026;28;20487;-79
2021/05/20 08:59:53;;;;;;;1.10;1.00;;;;;;;16.77;60.59;94270.25;5079533;28;20431;-80
2021/05/20 09:02:25;;;;;;;1.27;1.17;;;;;;;16.77;61.37;94280.84;5115263;28;20799;-80
2021/05/20 09:04:59;;;;;;;4.50;1.40;;;;;;;16.98;61.15;94283.59;5115064;28;20439;-81
2021/05/20 09:07:32;;;;;;;2.27;1.20;;;;;;;17.22;61.21;94278.00;5114890;28;20438;-80
2021/05/20 09:10:29;;;;;;;3.43;1.40;;;;;;;17.43;60.01;94284.38;5115029;28;20426;-80
2021/05/20 09:12:58;;;;;;;14.10;3.20;;;;;;;17.33;61.43;94274.84;5071847;28;20803;-80
2021/05/20 09:15:30;;;;;;;1.20;1.00;;;;;;;17.50;59.30;94275.47;5071860;28;20445;-81
2021/05/20 09:18:10;;;;;;;1.50;1.07;;;;;;;17.53;57.49;94280.41;5072001;28;20459;-80
2021/05/20 09:20:39;;;;;;;1.77;1.30;;;;;;;17.70;58.50;94275.72;5071772;28;21068;-80
2021/05/20 09:23:08;;;;;;;2.13;1.67;;;;;;;17.80;57.80;94270.09;5071723;28;20446;-81
2021/05/20 09:25:36;;;;;;;2.00;1.43;;;;;;;17.98;60.20;94261.69;5071511;28;20506;-81
2021/05/20 09:28:03;;;;;;;1.40;1.30;;;;;;;18.32;59.41;94266.25;5071597;28;20822;-81
2021/05/20 09:30:31;;;;;;;3.10;1.57;;;;;;;18.33;56.34;94260.75;5071514;28;20449;-81
2021/05/20 09:32:59;;;;;;;1.90;1.60;;;;;;;18.52;55.82;94257.44;5071570;28;20437;-80
2021/05/20 09:35:27;;;;;;;5.13;1.60;;;;;;;18.59;55.99;94260.13;5070572;28;20450;-81
2021/05/20 09:37:57;;;;;;;2.00;1.53;;;;;;;18.48;55.20;94256.16;5071620;28;20962;-81
2021/05/20 09:40:26;;;;;;;2.53;1.70;;;;;;;18.46;56.26;94252.88;5071462;28;20559;-80
2021/05/20 09:42:52;;;;;;;4.00;1.47;;;;;;;18.62;56.83;94246.47;5071380;28;20986;-81
2021/05/20 09:45:21;;;;;;;3.13;1.30;;;;;;;18.57;55.76;94256.84;5037820;28;20441;-81
2021/05/20 09:47:49;;;;;;;3.00;1.50;;;;;;;18.55;55.20;94256.22;5089447;28;20439;-80
2021/05/20 09:50:19;;;;;;;1.20;1.10;;;;;;;18.51;55.12;94258.44;5113963;28;20914;-81
2021/05/20 09:52:47;;;;;;;1.83;1.60;;;;;;;18.64;54.39;94254.25;5113639;28;20480;-80
2021/05/20 09:55:23;;;;;;;1.30;1.13;;;;;;;18.70;54.19;94259.59;5114315;28;20445;-82
2021/05/20 09:57:51;;;;;;;1.30;1.20;;;;;;;18.84;53.94;94258.69;5078559;28;20521;-81
2021/05/20 10:00:20;;;;;;;1.40;1.30;;;;;;;19.10;53.57;94251.88;5114091;28;20429;-81
2021/05/20 10:02:47;;;;;;;2.17;1.67;;;;;;;19.18;52.52;94255.16;5114020;28;20440;-81
2021/05/20 10:05:26;;;;;;;2.90;1.47;;;;;;;18.99;53.33;94255.06;5114217;28;20519;-80
2021/05/20 10:07:53;;;;;;;2.03;1.23;;;;;;;18.83;54.11;94254.38;5078086;28;21347;-81
2021/05/20 10:10:20;;;;;;;3.57;1.40;;;;;;;18.51;54.75;94252.31;5115008;27;20800;-81
2021/05/20 10:12:47;;;;;;;3.30;1.57;;;;;;;18.34;54.20;94264.25;5113622;28;20448;-81
2021/05/20 10:15:15;;;;;;;3.87;1.70;;;;;;;18.15;54.98;94261.22;5113687;28;20958;-80
2021/05/20 10:17:42;;;;;;;1.40;1.30;;;;;;;17.91;54.21;94259.78;5113707;28;20536;-81
2021/05/20 10:20:11;;;;;;;2.17;1.80;;;;;;;17.82;56.92;94260.94;5113433;28;20911;-79
2021/05/20 10:22:37;;;;;;;1.80;1.53;;;;;;;17.72;57.10;94260.44;5112105;28;20443;-79
2021/05/20 10:25:06;;;;;;;3.03;1.80;;;;;;;17.76;59.20;94261.69;5078246;28;20500;-82
2021/05/20 10:27:35;;;;;;;1.77;1.60;;;;;;;17.73;57.07;94256.75;5093604;28;20447;-81
2021/05/20 10:30:01;;;;;;;1.50;1.27;;;;;;;17.77;55.83;94258.03;5113838;28;20201;-80
2021/05/20 10:32:29;;;;;;;1.40;1.30;;;;;;;17.74;55.50;94253.09;5114107;28;20492;-80
2021/05/20 10:35:03;;;;;;;1.57;1.47;;;;;;;17.81;55.91;94259.28;5114057;28;20487;-81
2021/05/20 10:37:37;;;;;;;1.70;1.53;;;;;;;18.00;57.70;94257.00;5113723;28;20474;-80
2021/05/20 10:40:11;;;;;;;1.50;1.40;;;;;;;18.20;55.07;94255.31;5114218;28;20437;-81
2021/05/20 10:42:42;;;;;;;3.63;1.70;;;;;;;18.52;57.25;94248.66;5093585;28;20431;-81
2021/05/20 10:45:21;;;;;;;1.60;1.50;;;;;;;18.81;53.98;94258.25;5094494;28;20453;-81
2021/05/20 10:48:19;;;;;;;1.90;1.43;;;;;;;18.90;52.87;94251.75;5114051;28;20919;-83
2021/05/20 10:50:59;;;;;;;7.50;1.63;;;;;;;18.91;51.82;94240.09;5118181;28;20543;-86
2021/05/20 10:53:51;;;;;;;2.00;1.80;;;;;;;18.89;53.31;94242.16;5120983;28;20433;-87
2021/05/20 10:56:54;;;;;;;1.80;1.70;;;;;;;18.85;51.58;94236.41;5119704;28;20477;-85
2021/05/20 10:59:41;;;;;;;1.83;1.73;;;;;;;19.00;51.97;94240.75;5119942;28;20445;-83
2021/05/20 11:02:37;;;;;;;1.93;1.77;;;;;;;19.06;53.46;94226.66;5120004;28;20927;-84
2021/05/20 11:05:05;;;;;;;4.80;2.00;;;;;;;19.00;52.52;94228.28;5121833;28;20463;-84
2021/05/20 11:07:32;;;;;;;2.50;1.93;;;;;;;18.78;51.08;94224.06;5084758;28;20450;-84
2021/05/20 11:10:10;;;;;;;2.73;2.30;;;;;;;18.50;51.59;94216.09;5119715;28;20444;-83
2021/05/20 11:12:56;;;;;;;2.20;2.00;;;;;;;18.48;53.36;94223.44;5119186;28;20466;-83
2021/05/20 11:15:23;;;;;;;3.40;2.00;;;;;;;18.46;52.96;94213.03;5118409;28;20433;-81
2021/05/20 11:17:49;;;;;;;2.00;1.90;;;;;;;18.56;53.52;94204.72;5104951;28;20472;-80
2021/05/20 11:20:29;;;;;;;2.60;2.40;;;;;;;18.72;53.15;94203.59;5096773;28;20445;-80
2021/05/20 11:23:24;;;;;;;4.97;2.77;;;;;;;18.92;52.65;94198.38;5096453;28;20316;-80
2021/05/20 11:26:02;;;;;;;4.40;2.40;;;;;;;19.03;51.33;94195.97;5096658;28;21156;-81
2021/05/20 11:28:30;;;;;;;4.63;2.00;;;;;;;18.87;50.71;94183.03;5096574;28;20441;-82
2021/05/20 11:30:58;;;;;;;2.40;2.30;;;;;;;18.66;52.28;94191.09;5096864;28;21030;-81
2021/05/20 11:33:25;;;;;;;2.20;2.10;;;;;;;18.56;52.41;94205.53;5096446;28;20858;-82
2021/05/20 11:36:10;;;;;;;3.00;2.77;;;;;;;18.51;51.64;94202.66;5096434;28;20527;-83
2021/05/20 11:38:36;;;;;;;3.00;2.73;;;;;;;18.45;51.56;94198.09;5066959;28;20957;-81
2021/05/20 11:41:16;;;;;;;4.07;2.90;;;;;;;18.48;51.78;94192.38;5108144;28;20439;-81